Terminal Aerodrome Forecast
Issued by NWS

Current Version | Previous Version | Text Only | Print | Product List | Glossary On
Versions: 1 2 3 4 5 6 7 8 9 10 11 12 13 14 15 16 17 18 19 20
123
FTUS43 KABR 171720
TAFMBG
TAF
KMBG 171720Z 1718/1818 32011KT P6SM SCT035
     FM172300 20005KT P6SM SCT250
     FM180900 13015G22KT P6SM VCSH BKN030
     FM181100 12010KT P6SM VCSH BKN025 WS020/21030KT
     FM181300 VRB04KT P6SM VCSH BKN015 WS020/30025KT
     FM181600 32012KT P6SM BKN020=

USA.gov is the U.S. government's official web portal to all federal, state and local government web resources and services.